createdAt,value
2023-03-05T00:02:07.650Z,13.43
2023-03-05T00:04:37.207Z,14.73
2023-03-05T00:07:05.636Z,14.32
2023-03-05T00:09:35.812Z,18.00
2023-03-05T00:12:04.190Z,12.75
2023-03-05T00:14:32.221Z,14.35
2023-03-05T00:17:00.337Z,14.32
2023-03-05T00:19:28.437Z,17.25
2023-03-05T00:21:57.833Z,14.50
2023-03-05T00:24:25.867Z,14.38
2023-03-05T00:26:54.670Z,13.52
2023-03-05T00:29:23.124Z,17.10
2023-03-05T00:31:51.349Z,15.80
2023-03-05T00:34:20.502Z,18.17
2023-03-05T00:36:51.142Z,14.82
2023-03-05T00:39:21.909Z,18.20
2023-03-05T00:41:50.567Z,13.40
2023-03-05T00:44:18.807Z,16.00
2023-03-05T00:46:48.258Z,15.75
2023-03-05T00:49:16.866Z,13.15
2023-03-05T00:51:44.876Z,11.13
2023-03-05T00:54:12.889Z,13.23
2023-03-05T00:56:42.421Z,15.23
2023-03-05T00:59:10.501Z,18.25
2023-03-05T01:01:38.581Z,14.13
2023-03-05T01:04:06.846Z,10.73
2023-03-05T01:06:35.100Z,15.73
2023-03-05T01:09:03.212Z,16.88
2023-03-05T01:11:32.117Z,14.57
2023-03-05T01:14:01.576Z,13.75
2023-03-05T01:16:29.725Z,13.00
2023-03-05T01:18:57.772Z,17.73
2023-03-05T01:21:25.893Z,15.45
2023-03-05T01:23:53.981Z,13.73
2023-03-05T01:26:22.003Z,15.38
2023-03-05T01:28:50.073Z,13.57
2023-03-05T01:31:19.598Z,19.00
2023-03-05T01:33:47.606Z,14.10
2023-03-05T01:36:17.313Z,16.45
2023-03-05T01:38:46.549Z,12.48
2023-03-05T01:41:15.971Z,14.60
2023-03-05T01:43:44.174Z,11.77
2023-03-05T01:46:36.051Z,13.25
2023-03-05T01:49:12.035Z,16.58
2023-03-05T01:51:46.078Z,13.23
2023-03-05T01:54:16.916Z,12.75
2023-03-05T01:56:47.278Z,15.43
2023-03-05T01:59:15.670Z,11.98
2023-03-05T02:01:49.490Z,11.35
2023-03-05T02:04:19.905Z,11.80
2023-03-05T02:06:48.598Z,11.38
2023-03-05T02:09:16.883Z,14.70
2023-03-05T02:11:45.145Z,11.98
2023-03-05T02:14:13.189Z,20.30
2023-03-05T02:16:41.293Z,13.82
2023-03-05T02:19:13.123Z,12.45
2023-03-05T02:21:44.980Z,12.18
2023-03-05T02:24:14.603Z,12.73
2023-03-05T02:26:45.028Z,15.10
2023-03-05T02:29:17.115Z,13.52
2023-03-05T02:31:45.512Z,14.82
2023-03-05T02:34:13.600Z,14.98
2023-03-05T02:36:43.227Z,15.25
2023-03-05T02:39:11.506Z,9.50
2023-03-05T02:41:39.549Z,11.50
2023-03-05T02:44:07.574Z,14.38
2023-03-05T02:46:35.786Z,15.52
2023-03-05T02:49:03.872Z,16.05
2023-03-05T02:51:32.061Z,12.90
2023-03-05T02:54:01.473Z,15.35
2023-03-05T02:56:29.489Z,15.25
2023-03-05T02:58:57.525Z,13.13
2023-03-05T03:01:28.261Z,13.70
2023-03-05T03:03:56.352Z,11.10
2023-03-05T03:06:24.483Z,14.73
2023-03-05T03:08:52.507Z,13.73
2023-03-05T03:11:22.006Z,15.13
2023-03-05T03:13:50.072Z,11.30
2023-03-05T03:16:18.913Z,12.13
2023-03-05T03:18:49.008Z,11.38
2023-03-05T03:23:48.562Z,15.73
2023-03-05T03:26:16.839Z,12.20
2023-03-05T03:28:46.829Z,13.98
2023-03-05T03:31:15.189Z,9.63
2023-03-05T03:33:43.262Z,12.20
2023-03-05T03:36:11.678Z,12.77
2023-03-05T03:38:39.842Z,11.10
2023-03-05T03:41:08.906Z,12.45
2023-03-05T03:43:37.684Z,16.45
2023-03-05T03:46:08.238Z,16.40
2023-03-05T03:48:36.675Z,13.93
2023-03-05T03:51:09.028Z,15.98
2023-03-05T03:53:37.093Z,15.00
2023-03-05T03:56:05.716Z,14.75
2023-03-05T03:58:34.153Z,11.20
2023-03-05T04:01:02.283Z,15.07
2023-03-05T04:03:31.701Z,12.90
2023-03-05T04:05:59.902Z,10.98
2023-03-05T04:08:28.106Z,13.88
2023-03-05T04:10:56.124Z,12.40
2023-03-05T04:13:24.429Z,15.35
2023-03-05T04:15:52.491Z,17.52
2023-03-05T04:18:20.657Z,15.50
2023-03-05T04:20:50.083Z,14.32
2023-03-05T04:23:18.191Z,19.33
2023-03-05T04:25:46.237Z,12.20
2023-03-05T04:28:15.306Z,13.93
2023-03-05T04:30:43.304Z,14.98
2023-03-05T04:33:11.473Z,13.40
2023-03-05T04:35:39.861Z,19.33
2023-03-05T04:38:09.906Z,15.23
2023-03-05T04:40:38.109Z,13.50
2023-03-05T04:43:06.941Z,11.52
2023-03-05T04:45:35.338Z,15.82
2023-03-05T04:48:03.446Z,19.33
2023-03-05T04:50:31.808Z,12.55
2023-03-05T04:53:00.588Z,12.70
2023-03-05T04:55:30.132Z,14.18
2023-03-05T04:57:58.226Z,14.77
2023-03-05T05:00:26.869Z,13.85
2023-03-05T05:02:55.198Z,14.30
2023-03-05T05:05:25.897Z,16.40
2023-03-05T05:07:57.178Z,14.00
2023-03-05T05:10:25.917Z,16.25
2023-03-05T05:12:55.456Z,15.65
2023-03-05T05:15:23.497Z,17.75
2023-03-05T05:17:51.921Z,12.93
2023-03-05T05:20:20.265Z,20.13
2023-03-05T05:22:48.271Z,16.15
2023-03-05T05:25:16.478Z,14.18
2023-03-05T05:27:44.591Z,13.32
2023-03-05T05:30:14.809Z,12.98
2023-03-05T05:35:12.011Z,12.65
2023-03-05T05:37:40.160Z,14.63
2023-03-05T05:40:09.898Z,14.27
2023-03-05T05:42:37.931Z,12.93
2023-03-05T05:45:06.886Z,12.95
2023-03-05T05:47:36.396Z,17.85
2023-03-05T05:50:04.477Z,13.80
2023-03-05T05:52:32.588Z,13.23
2023-03-05T05:55:00.572Z,14.50
2023-03-05T05:57:28.573Z,13.27
2023-03-05T05:59:56.562Z,16.70
2023-03-05T06:02:24.802Z,15.07
2023-03-05T06:04:54.610Z,11.50
2023-03-05T06:07:23.475Z,17.25
2023-03-05T06:09:51.506Z,15.65
2023-03-05T06:12:20.710Z,13.82
2023-03-05T06:14:48.699Z,14.60
2023-03-05T06:17:25.114Z,11.73
2023-03-05T06:19:59.684Z,14.85
2023-03-05T06:22:27.843Z,14.32
2023-03-05T06:24:55.821Z,10.05
2023-03-05T06:27:23.857Z,12.82
2023-03-05T06:29:54.012Z,13.40
2023-03-05T06:34:50.456Z,13.90
2023-03-05T06:37:19.932Z,14.65
2023-03-05T06:39:47.983Z,14.70
2023-03-05T06:42:17.747Z,17.50
2023-03-05T06:44:47.897Z,16.95
2023-03-05T06:47:17.682Z,18.95
2023-03-05T06:49:45.700Z,12.30
2023-03-05T06:52:13.813Z,12.95
2023-03-05T06:54:43.235Z,20.40
2023-03-05T06:57:12.197Z,14.02
2023-03-05T06:59:40.340Z,14.68
2023-03-05T07:02:11.974Z,13.07
2023-03-05T07:04:40.049Z,14.65
2023-03-05T07:07:10.826Z,13.23
2023-03-05T07:09:42.975Z,12.80
2023-03-05T07:12:12.909Z,12.98
2023-03-05T07:14:40.914Z,12.93
2023-03-05T07:17:09.126Z,12.93
2023-03-05T07:19:37.224Z,11.52
2023-03-05T07:22:05.206Z,14.90
2023-03-05T07:24:33.198Z,13.93
2023-03-05T07:27:01.538Z,13.98
2023-03-05T07:29:30.946Z,17.10
2023-03-05T07:31:59.014Z,11.73
2023-03-05T07:34:27.320Z,11.90
2023-03-05T07:36:55.514Z,12.20
2023-03-05T07:39:23.506Z,13.30
2023-03-05T07:41:52.650Z,12.05
2023-03-05T07:44:20.690Z,11.93
2023-03-05T07:46:50.151Z,13.73
2023-03-05T07:49:18.162Z,15.73
2023-03-05T07:51:46.220Z,13.88
2023-03-05T07:54:14.321Z,14.82
2023-03-05T07:56:42.456Z,12.05
2023-03-05T07:59:13.718Z,12.18
2023-03-05T08:01:42.008Z,17.88
2023-03-05T08:04:11.855Z,14.60
2023-03-05T08:06:41.080Z,12.07
2023-03-05T08:09:09.327Z,12.03
2023-03-05T08:11:37.322Z,14.75
2023-03-05T08:14:05.341Z,11.68
2023-03-05T08:16:33.531Z,12.30
2023-03-05T08:19:01.655Z,13.68
2023-03-05T08:21:33.880Z,11.95
2023-03-05T08:24:03.211Z,12.88
2023-03-05T08:26:32.786Z,15.25
2023-03-05T08:29:00.954Z,11.80
2023-03-05T08:31:30.308Z,12.20
2023-03-05T08:34:02.073Z,11.85
2023-03-05T08:36:31.623Z,13.57
2023-03-05T08:39:00.518Z,10.32
2023-03-05T08:41:28.601Z,10.35
2023-03-05T08:43:56.648Z,13.10
2023-03-05T08:46:25.037Z,15.98
2023-03-05T08:48:53.098Z,13.95
2023-03-05T08:51:25.554Z,11.15
2023-03-05T08:53:56.490Z,11.68
2023-03-05T08:56:26.304Z,12.15
2023-03-05T08:58:54.436Z,15.38
2023-03-05T09:01:24.128Z,16.63
2023-03-05T09:03:52.328Z,11.75
2023-03-05T09:06:20.621Z,13.43
2023-03-05T09:08:48.587Z,12.30
2023-03-05T09:11:18.518Z,18.48
2023-03-05T09:13:46.528Z,11.32
2023-03-05T09:16:16.299Z,10.77
2023-03-05T09:18:44.968Z,9.73
2023-03-05T09:21:15.740Z,9.35
2023-03-05T09:23:47.324Z,10.35
2023-03-05T09:26:19.470Z,11.68
2023-03-05T09:28:48.733Z,10.45
2023-03-05T09:31:17.056Z,9.98
2023-03-05T09:33:45.171Z,7.47
2023-03-05T09:36:21.084Z,12.20
2023-03-05T09:38:49.132Z,9.82
2023-03-05T09:41:30.334Z,10.05
2023-03-05T09:44:08.945Z,10.70
2023-03-05T09:46:51.615Z,10.73
2023-03-05T09:49:30.493Z,9.88
2023-03-05T09:52:10.640Z,9.15
2023-03-05T09:54:42.519Z,11.80
2023-03-05T09:57:18.740Z,12.70
2023-03-05T09:59:51.092Z,11.30
2023-03-05T10:02:22.137Z,10.50
2023-03-05T10:04:56.122Z,11.43
2023-03-05T10:07:28.782Z,7.93
2023-03-05T10:10:00.704Z,8.13
2023-03-05T10:12:42.611Z,8.75
2023-03-05T10:15:14.572Z,12.20
2023-03-05T10:18:06.921Z,6.28
2023-03-05T10:20:52.439Z,10.50
2023-03-05T10:23:30.189Z,9.57
2023-03-05T10:26:12.138Z,11.15
2023-03-05T10:28:47.790Z,8.15
2023-03-05T10:31:38.373Z,7.78
2023-03-05T10:34:32.628Z,9.65
2023-03-05T10:37:39.993Z,10.43
2023-03-05T10:40:17.323Z,7.82
2023-03-05T10:42:55.301Z,10.38
2023-03-05T10:45:29.427Z,12.65
2023-03-05T10:48:04.648Z,6.22
2023-03-05T10:50:37.309Z,6.45
2023-03-05T10:53:17.147Z,5.88
2023-03-05T10:55:45.791Z,8.10
2023-03-05T10:58:14.829Z,7.70
2023-03-05T11:00:59.910Z,8.27
2023-03-05T11:03:30.466Z,5.15
2023-03-05T11:06:02.230Z,10.98
2023-03-05T11:08:33.670Z,6.78
2023-03-05T11:11:15.283Z,6.90
2023-03-05T11:13:53.074Z,7.60
2023-03-05T11:16:24.825Z,6.82
2023-03-05T11:19:16.835Z,6.45
2023-03-05T11:21:46.232Z,10.18
2023-03-05T11:24:16.112Z,5.10
2023-03-05T11:26:52.261Z,5.63
2023-03-05T11:29:26.259Z,7.55
2023-03-05T11:31:56.021Z,4.18
2023-03-05T11:34:31.528Z,5.18
2023-03-05T11:37:06.392Z,3.80
2023-03-05T11:39:38.492Z,5.82
2023-03-05T11:42:12.094Z,7.00
2023-03-05T11:44:48.186Z,4.20
2023-03-05T11:47:25.767Z,6.43
2023-03-05T11:50:02.278Z,5.15
2023-03-05T11:52:35.462Z,3.20
2023-03-05T11:55:07.195Z,4.07
2023-03-05T11:57:44.001Z,4.25
2023-03-05T12:00:17.987Z,4.78
2023-03-05T12:02:51.817Z,3.42
2023-03-05T12:05:20.012Z,2.85
2023-03-05T12:07:52.103Z,4.30
2023-03-05T12:10:22.144Z,2.35
2023-03-05T12:12:57.042Z,4.13
2023-03-05T12:15:47.784Z,4.13
2023-03-05T12:18:30.597Z,4.00
2023-03-05T12:21:07.445Z,4.65
2023-03-05T12:23:50.363Z,1.92
2023-03-05T12:26:19.075Z,4.65
2023-03-05T12:28:58.535Z,3.50
2023-03-05T12:31:38.006Z,3.97
2023-03-05T12:34:47.246Z,2.42
2023-03-05T12:37:16.233Z,3.90
2023-03-05T12:39:53.192Z,2.20
2023-03-05T12:42:52.649Z,1.95
2023-03-05T12:45:33.455Z,1.80
2023-03-05T12:48:37.171Z,2.45
2023-03-05T12:51:06.734Z,1.65
2023-03-05T12:53:35.102Z,6.07
2023-03-05T12:56:12.394Z,6.15
2023-03-05T12:58:45.194Z,4.75
2023-03-05T13:01:30.337Z,2.17
2023-03-05T13:04:02.023Z,1.88
2023-03-05T13:06:34.213Z,2.17
2023-03-05T13:09:04.258Z,2.90
2023-03-05T13:11:35.110Z,2.03
2023-03-05T13:14:03.709Z,2.25
2023-03-05T13:16:38.248Z,1.60
2023-03-05T13:19:17.506Z,1.77
2023-03-05T13:21:46.942Z,2.08
2023-03-05T13:24:17.962Z,1.80
2023-03-05T13:26:46.162Z,2.83
2023-03-05T13:29:16.633Z,2.10
2023-03-05T13:31:46.594Z,4.00
2023-03-05T13:34:19.377Z,2.38
2023-03-05T13:36:55.697Z,1.50
2023-03-05T13:39:27.398Z,2.58
2023-03-05T13:42:04.328Z,1.48
2023-03-05T13:44:33.550Z,2.22
2023-03-05T13:47:09.855Z,3.80
2023-03-05T13:49:37.852Z,1.52
2023-03-05T13:52:07.925Z,2.22
2023-03-05T13:54:35.961Z,3.25
2023-03-05T13:57:06.698Z,1.10
2023-03-05T13:59:39.094Z,3.25
2023-03-05T14:02:18.339Z,2.22
2023-03-05T14:07:42.973Z,2.15
2023-03-05T14:10:30.602Z,2.33
2023-03-05T14:12:59.662Z,1.50
2023-03-05T14:15:30.795Z,9.65
2023-03-05T14:18:19.365Z,1.42
2023-03-05T14:21:03.139Z,1.05
2023-03-05T14:23:39.296Z,0.85
2023-03-05T14:26:22.072Z,0.63
2023-03-05T14:28:54.784Z,1.92
2023-03-05T14:31:23.836Z,2.65
2023-03-05T14:33:53.459Z,0.52
2023-03-05T14:36:27.402Z,0.93
2023-03-05T14:38:57.930Z,0.57
2023-03-05T14:41:38.691Z,0.65
2023-03-05T14:44:13.653Z,1.20
2023-03-05T14:46:42.097Z,1.23
2023-03-05T14:49:10.521Z,2.33
2023-03-05T14:51:41.840Z,2.47
2023-03-05T14:54:21.674Z,1.35
2023-03-05T14:56:50.780Z,1.52
2023-03-05T14:59:19.131Z,2.28
2023-03-05T15:01:47.204Z,1.60
2023-03-05T15:04:19.110Z,3.63
2023-03-05T15:06:51.023Z,1.17
2023-03-05T15:09:21.242Z,2.45
2023-03-05T15:11:50.073Z,2.00
2023-03-05T15:14:18.161Z,0.98
2023-03-05T15:16:48.838Z,1.92
2023-03-05T15:19:16.915Z,2.88
2023-03-05T15:21:45.068Z,1.83
2023-03-05T15:24:14.862Z,0.60
2023-03-05T15:26:46.239Z,0.93
2023-03-05T15:29:14.227Z,3.28
2023-03-05T15:31:42.218Z,1.05
2023-03-05T15:34:10.228Z,1.40
2023-03-05T15:36:38.337Z,2.30
2023-03-05T15:39:06.399Z,1.33
2023-03-05T15:41:34.417Z,3.15
2023-03-05T15:44:03.985Z,2.65
2023-03-05T15:46:33.404Z,2.28
2023-03-05T15:49:01.442Z,1.92
2023-03-05T15:51:29.527Z,2.05
2023-03-05T15:53:58.068Z,2.95
2023-03-05T15:56:26.056Z,1.98
2023-03-05T15:58:54.206Z,1.42
2023-03-05T16:01:23.732Z,2.65
2023-03-05T16:03:52.293Z,2.28
2023-03-05T16:06:23.350Z,2.55
2023-03-05T16:08:53.671Z,8.60
2023-03-05T16:11:21.932Z,2.28
2023-03-05T16:13:51.409Z,3.08
2023-03-05T16:16:21.813Z,2.33
2023-03-05T16:18:51.590Z,5.07
2023-03-05T16:21:19.634Z,2.42
2023-03-05T16:23:49.461Z,5.00
2023-03-05T16:26:19.940Z,2.78
2023-03-05T16:28:47.888Z,3.25
2023-03-05T16:31:15.904Z,30.17
2023-03-05T16:33:43.999Z,21.17
2023-03-05T16:36:26.020Z,34.03
2023-03-05T16:38:56.327Z,20.40
2023-03-05T16:41:25.199Z,4.50
2023-03-05T16:43:56.356Z,3.20
2023-03-05T16:46:25.148Z,2.10
2023-03-05T16:48:54.358Z,2.10
2023-03-05T16:51:23.892Z,3.00
2023-03-05T16:53:52.318Z,1.92
2023-03-05T16:56:20.886Z,2.08
2023-03-05T16:58:51.397Z,10.57
2023-03-05T17:01:21.893Z,23.50
2023-03-05T17:03:50.600Z,24.38
2023-03-05T17:06:24.513Z,10.07
2023-03-05T17:08:54.653Z,13.13
2023-03-05T17:13:50.698Z,5.13
2023-03-05T17:16:20.650Z,4.53
2023-03-05T17:18:49.349Z,2.30
2023-03-05T17:21:17.479Z,7.25
2023-03-05T17:23:45.944Z,6.05
2023-03-05T17:26:17.714Z,7.60
2023-03-05T17:28:46.196Z,9.35
2023-03-05T17:31:14.915Z,6.22
2023-03-05T17:33:43.165Z,4.75
2023-03-05T17:36:15.220Z,5.78
2023-03-05T17:38:43.645Z,9.02
2023-03-05T17:41:11.820Z,5.80
2023-03-05T17:43:41.385Z,9.40
2023-03-05T17:46:10.024Z,9.02
2023-03-05T17:48:39.392Z,11.32
2023-03-05T17:51:08.268Z,10.13
2023-03-05T17:53:38.923Z,5.35
2023-03-05T17:56:08.931Z,6.50
2023-03-05T17:58:37.111Z,8.77
2023-03-05T18:01:08.215Z,7.07
2023-03-05T18:03:37.142Z,9.32
2023-03-05T18:06:05.836Z,4.07
2023-03-05T18:08:33.910Z,2.90
2023-03-05T18:11:01.949Z,6.57
2023-03-05T18:13:29.938Z,5.82
2023-03-05T18:15:59.536Z,4.85
2023-03-05T18:18:29.517Z,5.95
2023-03-05T18:20:57.604Z,5.03
2023-03-05T18:23:25.590Z,4.65
2023-03-05T18:25:53.601Z,2.47
2023-03-05T18:28:22.071Z,3.80
2023-03-05T18:30:50.227Z,2.83
2023-03-05T18:33:20.885Z,4.95
2023-03-05T18:35:52.484Z,3.60
2023-03-05T18:38:21.330Z,4.70
2023-03-05T18:40:51.444Z,6.25
2023-03-05T18:45:51.339Z,5.15
2023-03-05T18:48:19.819Z,4.93
2023-03-05T18:50:52.573Z,7.43
2023-03-05T18:53:22.752Z,4.43
2023-03-05T18:58:19.817Z,6.22
2023-03-05T19:00:48.710Z,4.45
2023-03-05T19:03:19.839Z,6.03
2023-03-05T19:05:51.307Z,6.05
2023-03-05T19:10:49.261Z,7.53
2023-03-05T19:13:25.870Z,5.15
2023-03-05T19:15:54.122Z,4.88
2023-03-05T19:18:25.740Z,5.93
2023-03-05T19:20:55.986Z,5.07
2023-03-05T19:23:24.106Z,10.10
2023-03-05T19:25:53.532Z,4.75
2023-03-05T19:28:21.933Z,3.60
2023-03-05T19:30:50.130Z,3.88
2023-03-05T19:33:18.142Z,5.88
2023-03-05T19:35:46.233Z,7.53
2023-03-05T19:38:14.227Z,7.47
2023-03-05T19:40:42.660Z,6.30
2023-03-05T19:43:12.197Z,4.28
2023-03-05T19:45:40.212Z,6.47
2023-03-05T19:48:08.765Z,6.18
2023-03-05T19:50:36.894Z,3.63
2023-03-05T19:53:04.934Z,5.22
2023-03-05T19:55:33.073Z,3.97
2023-03-05T19:58:01.102Z,5.30
2023-03-05T20:00:30.707Z,4.63
2023-03-05T20:02:58.891Z,4.35
2023-03-05T20:05:26.959Z,3.15
2023-03-05T20:07:55.106Z,2.88
2023-03-05T20:10:23.442Z,3.05
2023-03-05T20:12:51.871Z,2.72
2023-03-05T20:15:23.494Z,3.50
2023-03-05T20:17:54.918Z,3.03
2023-03-05T20:20:23.135Z,4.40
2023-03-05T20:22:51.163Z,3.88
2023-03-05T20:25:22.352Z,4.90
2023-03-05T20:27:50.432Z,3.25
2023-03-05T20:30:19.056Z,4.28
2023-03-05T20:32:47.426Z,5.90
2023-03-05T20:35:18.780Z,4.07
2023-03-05T20:38:00.237Z,2.75
2023-03-05T20:40:30.400Z,3.45
2023-03-05T20:45:26.144Z,4.43
2023-03-05T20:47:55.634Z,2.95
2023-03-05T20:50:26.591Z,6.07
2023-03-05T20:52:54.635Z,5.28
2023-03-05T20:55:23.494Z,3.65
2023-03-05T20:57:51.717Z,5.07
2023-03-05T21:00:20.298Z,3.95
2023-03-05T21:02:50.665Z,3.65
2023-03-05T21:05:20.262Z,3.97
2023-03-05T21:07:50.210Z,6.13
2023-03-05T21:10:18.650Z,2.92
2023-03-05T21:12:48.008Z,2.75
2023-03-05T21:15:19.452Z,6.70
2023-03-05T21:17:48.012Z,3.70
2023-03-05T21:20:17.350Z,5.28
2023-03-05T21:22:45.361Z,4.30
2023-03-05T21:25:21.864Z,4.93
2023-03-05T21:27:51.483Z,6.03
2023-03-05T21:30:21.358Z,4.55
2023-03-05T21:32:50.086Z,4.32
2023-03-05T21:35:19.925Z,3.25
2023-03-05T21:37:48.500Z,5.38
2023-03-05T21:40:18.977Z,5.88
2023-03-05T21:42:47.731Z,7.05
2023-03-05T21:45:19.536Z,7.38
2023-03-05T21:47:48.252Z,5.82
2023-03-05T21:50:18.216Z,5.35
2023-03-05T21:52:47.948Z,5.82
2023-03-05T21:55:19.519Z,2.13
2023-03-05T21:57:47.553Z,3.58
2023-03-05T22:00:18.220Z,7.35
2023-03-05T22:02:47.033Z,14.25
2023-03-05T22:05:15.678Z,9.75
2023-03-05T22:07:44.459Z,3.40
2023-03-05T22:10:14.046Z,4.47
2023-03-05T22:12:53.316Z,3.53
2023-03-05T22:15:21.853Z,2.93
2023-03-05T22:17:50.334Z,6.43
2023-03-05T22:20:19.205Z,3.47
2023-03-05T22:22:47.258Z,6.72
2023-03-05T22:25:16.932Z,3.97
2023-03-05T22:27:46.491Z,2.53
2023-03-05T22:30:15.215Z,2.05
2023-03-05T22:32:43.232Z,4.30
2023-03-05T22:35:13.566Z,3.38
2023-03-05T22:37:42.476Z,2.88
2023-03-05T22:40:14.669Z,5.43
2023-03-05T22:42:42.980Z,3.40
2023-03-05T22:45:13.760Z,4.85
2023-03-05T22:47:41.833Z,10.02
2023-03-05T22:50:11.101Z,4.20
2023-03-05T22:52:39.168Z,3.40
2023-03-05T22:55:07.880Z,3.55
2023-03-05T22:57:35.887Z,5.70
2023-03-05T23:00:08.179Z,8.60
2023-03-05T23:02:37.588Z,3.40
2023-03-05T23:05:07.356Z,4.22
2023-03-05T23:07:37.660Z,7.53
2023-03-05T23:10:10.715Z,3.22
2023-03-05T23:12:44.091Z,2.40
2023-03-05T23:15:14.775Z,4.03
2023-03-05T23:17:44.164Z,3.40
2023-03-05T23:20:16.719Z,3.35
2023-03-05T23:22:46.341Z,5.03
2023-03-05T23:25:16.473Z,2.15
2023-03-05T23:27:44.807Z,4.38
2023-03-05T23:30:19.770Z,2.50
2023-03-05T23:32:52.166Z,2.92
2023-03-05T23:35:22.516Z,2.83
2023-03-05T23:37:50.572Z,7.05
2023-03-05T23:40:21.391Z,2.97
2023-03-05T23:42:49.478Z,4.03
2023-03-05T23:45:20.219Z,6.38
2023-03-05T23:47:52.069Z,4.88
2023-03-05T23:50:22.195Z,3.40
2023-03-05T23:52:51.033Z,2.22
2023-03-05T23:55:21.475Z,4.10
2023-03-05T23:57:50.098Z,6.60
